sensor_id;sensor_type;location;lat;lon;timestamp;P1;durP1;ratioP1;P2;durP2;ratioP2
69970;SDS011;57301;50.328;8.542;2022-12-11T00:01:10;26.00;;;12.13;;
69970;SDS011;57301;50.328;8.542;2022-12-11T00:03:38;28.67;;;12.88;;
69970;SDS011;57301;50.328;8.542;2022-12-11T00:06:08;28.40;;;13.25;;
69970;SDS011;57301;50.328;8.542;2022-12-11T00:08:37;31.53;;;13.43;;
69970;SDS011;57301;50.328;8.542;2022-12-11T00:11:06;34.05;;;15.32;;
69970;SDS011;57301;50.328;8.542;2022-12-11T00:13:34;28.00;;;12.30;;
69970;SDS011;57301;50.328;8.542;2022-12-11T00:16:00;27.02;;;12.27;;
69970;SDS011;57301;50.328;8.542;2022-12-11T00:18:27;31.73;;;12.73;;
69970;SDS011;57301;50.328;8.542;2022-12-11T00:20:53;29.20;;;12.23;;
69970;SDS011;57301;50.328;8.542;2022-12-11T00:23:20;29.10;;;12.70;;
69970;SDS011;57301;50.328;8.542;2022-12-11T00:25:46;34.05;;;13.82;;
69970;SDS011;57301;50.328;8.542;2022-12-11T00:28:14;27.92;;;12.68;;
69970;SDS011;57301;50.328;8.542;2022-12-11T00:30:44;28.13;;;12.63;;
69970;SDS011;57301;50.328;8.542;2022-12-11T00:33:12;29.97;;;13.47;;
69970;SDS011;57301;50.328;8.542;2022-12-11T00:35:40;28.98;;;13.60;;
69970;SDS011;57301;50.328;8.542;2022-12-11T00:38:12;32.08;;;14.75;;
69970;SDS011;57301;50.328;8.542;2022-12-11T00:40:41;29.63;;;13.27;;
69970;SDS011;57301;50.328;8.542;2022-12-11T00:43:07;27.73;;;12.60;;
69970;SDS011;57301;50.328;8.542;2022-12-11T00:45:37;27.77;;;12.97;;
69970;SDS011;57301;50.328;8.542;2022-12-11T00:48:06;30.33;;;13.18;;
69970;SDS011;57301;50.328;8.542;2022-12-11T00:50:34;34.47;;;14.63;;
69970;SDS011;57301;50.328;8.542;2022-12-11T00:53:02;34.00;;;13.82;;
69970;SDS011;57301;50.328;8.542;2022-12-11T00:55:30;34.67;;;15.45;;
69970;SDS011;57301;50.328;8.542;2022-12-11T00:57:57;32.97;;;14.00;;
69970;SDS011;57301;50.328;8.542;2022-12-11T01:00:23;38.30;;;15.13;;
69970;SDS011;57301;50.328;8.542;2022-12-11T01:02:50;40.75;;;16.48;;
69970;SDS011;57301;50.328;8.542;2022-12-11T01:05:16;33.30;;;13.68;;
69970;SDS011;57301;50.328;8.542;2022-12-11T01:07:43;36.88;;;14.18;;
69970;SDS011;57301;50.328;8.542;2022-12-11T01:10:11;37.90;;;15.60;;
69970;SDS011;57301;50.328;8.542;2022-12-11T01:12:54;36.05;;;14.65;;
69970;SDS011;57301;50.328;8.542;2022-12-11T01:15:33;36.97;;;15.30;;
69970;SDS011;57301;50.328;8.542;2022-12-11T01:18:08;36.17;;;14.30;;
69970;SDS011;57301;50.328;8.542;2022-12-11T01:20:36;40.40;;;15.13;;
69970;SDS011;57301;50.328;8.542;2022-12-11T01:23:05;37.57;;;15.53;;
69970;SDS011;57301;50.328;8.542;2022-12-11T01:25:31;36.47;;;15.77;;
69970;SDS011;57301;50.328;8.542;2022-12-11T01:28:00;37.17;;;15.48;;
69970;SDS011;57301;50.328;8.542;2022-12-11T01:30:27;39.42;;;14.77;;
69970;SDS011;57301;50.328;8.542;2022-12-11T01:32:53;39.13;;;16.27;;
69970;SDS011;57301;50.328;8.542;2022-12-11T01:35:20;39.23;;;14.97;;
69970;SDS011;57301;50.328;8.542;2022-12-11T01:37:47;34.55;;;14.50;;
69970;SDS011;57301;50.328;8.542;2022-12-11T01:40:15;37.90;;;15.27;;
69970;SDS011;57301;50.328;8.542;2022-12-11T01:42:43;35.53;;;14.98;;
69970;SDS011;57301;50.328;8.542;2022-12-11T01:47:56;34.67;;;15.40;;
69970;SDS011;57301;50.328;8.542;2022-12-11T01:51:05;34.08;;;14.45;;
69970;SDS011;57301;50.328;8.542;2022-12-11T01:53:34;34.92;;;15.23;;
69970;SDS011;57301;50.328;8.542;2022-12-11T01:56:04;35.70;;;15.02;;
69970;SDS011;57301;50.328;8.542;2022-12-11T01:58:32;32.97;;;14.35;;
69970;SDS011;57301;50.328;8.542;2022-12-11T02:01:10;34.23;;;14.77;;
69970;SDS011;57301;50.328;8.542;2022-12-11T02:03:42;34.20;;;15.45;;
69970;SDS011;57301;50.328;8.542;2022-12-11T02:09:03;36.05;;;14.88;;
69970;SDS011;57301;50.328;8.542;2022-12-11T02:14:41;33.83;;;15.20;;
69970;SDS011;57301;50.328;8.542;2022-12-11T02:17:16;34.80;;;15.48;;
69970;SDS011;57301;50.328;8.542;2022-12-11T02:19:57;33.35;;;15.18;;
69970;SDS011;57301;50.328;8.542;2022-12-11T02:22:27;33.15;;;14.50;;
69970;SDS011;57301;50.328;8.542;2022-12-11T02:24:58;35.63;;;14.48;;
69970;SDS011;57301;50.328;8.542;2022-12-11T02:30:58;35.53;;;14.35;;
69970;SDS011;57301;50.328;8.542;2022-12-11T02:33:38;34.25;;;14.52;;
69970;SDS011;57301;50.328;8.542;2022-12-11T02:36:09;34.22;;;14.55;;
69970;SDS011;57301;50.328;8.542;2022-12-11T02:38:38;31.08;;;13.35;;
69970;SDS011;57301;50.328;8.542;2022-12-11T02:41:06;35.67;;;14.07;;
69970;SDS011;57301;50.328;8.542;2022-12-11T02:43:36;29.65;;;14.23;;
69970;SDS011;57301;50.328;8.542;2022-12-11T02:46:05;32.63;;;14.02;;
69970;SDS011;57301;50.328;8.542;2022-12-11T02:48:33;31.77;;;15.55;;
69970;SDS011;57301;50.328;8.542;2022-12-11T02:51:02;32.35;;;13.52;;
69970;SDS011;57301;50.328;8.542;2022-12-11T02:53:31;33.20;;;14.40;;
69970;SDS011;57301;50.328;8.542;2022-12-11T02:56:10;31.15;;;14.15;;
69970;SDS011;57301;50.328;8.542;2022-12-11T02:59:00;35.03;;;15.15;;
69970;SDS011;57301;50.328;8.542;2022-12-11T03:01:31;36.53;;;14.57;;
69970;SDS011;57301;50.328;8.542;2022-12-11T03:04:01;33.45;;;14.43;;
69970;SDS011;57301;50.328;8.542;2022-12-11T03:06:31;35.27;;;15.10;;
69970;SDS011;57301;50.328;8.542;2022-12-11T03:09:02;39.45;;;15.80;;
69970;SDS011;57301;50.328;8.542;2022-12-11T03:11:30;36.95;;;16.23;;
69970;SDS011;57301;50.328;8.542;2022-12-11T03:13:57;38.58;;;16.48;;
69970;SDS011;57301;50.328;8.542;2022-12-11T03:19:36;36.47;;;16.00;;
69970;SDS011;57301;50.328;8.542;2022-12-11T03:22:08;37.58;;;15.52;;
69970;SDS011;57301;50.328;8.542;2022-12-11T03:24:43;37.60;;;16.85;;
69970;SDS011;57301;50.328;8.542;2022-12-11T03:27:15;38.83;;;16.38;;
69970;SDS011;57301;50.328;8.542;2022-12-11T03:29:58;40.85;;;17.17;;
69970;SDS011;57301;50.328;8.542;2022-12-11T03:32:28;36.77;;;16.63;;
69970;SDS011;57301;50.328;8.542;2022-12-11T03:35:43;37.63;;;15.55;;
69970;SDS011;57301;50.328;8.542;2022-12-11T03:37:57;35.75;;;15.07;;
69970;SDS011;57301;50.328;8.542;2022-12-11T03:40:28;35.28;;;14.93;;
69970;SDS011;57301;50.328;8.542;2022-12-11T03:42:58;33.67;;;14.32;;
69970;SDS011;57301;50.328;8.542;2022-12-11T03:45:26;35.73;;;14.87;;
69970;SDS011;57301;50.328;8.542;2022-12-11T03:47:55;40.65;;;15.75;;
69970;SDS011;57301;50.328;8.542;2022-12-11T03:50:25;35.75;;;15.35;;
69970;SDS011;57301;50.328;8.542;2022-12-11T03:52:54;36.17;;;15.13;;
69970;SDS011;57301;50.328;8.542;2022-12-11T03:55:22;37.35;;;14.50;;
69970;SDS011;57301;50.328;8.542;2022-12-11T03:57:49;36.60;;;14.63;;
69970;SDS011;57301;50.328;8.542;2022-12-11T04:00:17;38.97;;;16.05;;
69970;SDS011;57301;50.328;8.542;2022-12-11T04:02:45;38.25;;;16.40;;
69970;SDS011;57301;50.328;8.542;2022-12-11T04:05:38;35.17;;;14.52;;
69970;SDS011;57301;50.328;8.542;2022-12-11T04:08:06;34.55;;;15.00;;
69970;SDS011;57301;50.328;8.542;2022-12-11T04:10:32;35.33;;;15.17;;
69970;SDS011;57301;50.328;8.542;2022-12-11T04:13:02;36.22;;;14.40;;
69970;SDS011;57301;50.328;8.542;2022-12-11T04:15:28;37.28;;;15.45;;
69970;SDS011;57301;50.328;8.542;2022-12-11T04:17:55;40.47;;;15.35;;
69970;SDS011;57301;50.328;8.542;2022-12-11T04:20:40;40.47;;;15.52;;
69970;SDS011;57301;50.328;8.542;2022-12-11T04:23:24;35.13;;;14.93;;
69970;SDS011;57301;50.328;8.542;2022-12-11T04:26:11;39.25;;;15.55;;
69970;SDS011;57301;50.328;8.542;2022-12-11T04:28:40;39.50;;;15.63;;
69970;SDS011;57301;50.328;8.542;2022-12-11T04:31:15;38.45;;;17.45;;
69970;SDS011;57301;50.328;8.542;2022-12-11T04:33:44;36.08;;;16.00;;
69970;SDS011;57301;50.328;8.542;2022-12-11T04:36:11;35.30;;;15.47;;
69970;SDS011;57301;50.328;8.542;2022-12-11T04:38:38;36.75;;;15.05;;
69970;SDS011;57301;50.328;8.542;2022-12-11T04:41:07;34.97;;;14.73;;
69970;SDS011;57301;50.328;8.542;2022-12-11T04:43:36;33.72;;;14.55;;
69970;SDS011;57301;50.328;8.542;2022-12-11T04:48:37;38.73;;;16.20;;
69970;SDS011;57301;50.328;8.542;2022-12-11T04:51:04;49.97;;;21.38;;
69970;SDS011;57301;50.328;8.542;2022-12-11T04:53:31;40.67;;;17.52;;
69970;SDS011;57301;50.328;8.542;2022-12-11T04:55:58;38.10;;;17.45;;
69970;SDS011;57301;50.328;8.542;2022-12-11T04:58:24;40.13;;;17.08;;
69970;SDS011;57301;50.328;8.542;2022-12-11T05:00:51;39.33;;;16.83;;
69970;SDS011;57301;50.328;8.542;2022-12-11T05:03:18;42.22;;;17.52;;
69970;SDS011;57301;50.328;8.542;2022-12-11T05:05:49;43.88;;;18.42;;
69970;SDS011;57301;50.328;8.542;2022-12-11T05:08:17;39.88;;;17.42;;
69970;SDS011;57301;50.328;8.542;2022-12-11T05:10:53;39.38;;;16.48;;
69970;SDS011;57301;50.328;8.542;2022-12-11T05:13:20;44.60;;;19.33;;
69970;SDS011;57301;50.328;8.542;2022-12-11T05:15:47;44.58;;;18.98;;
69970;SDS011;57301;50.328;8.542;2022-12-11T05:18:13;39.97;;;17.27;;
69970;SDS011;57301;50.328;8.542;2022-12-11T05:20:40;42.88;;;17.65;;
69970;SDS011;57301;50.328;8.542;2022-12-11T05:23:06;42.63;;;17.17;;
69970;SDS011;57301;50.328;8.542;2022-12-11T05:25:33;44.87;;;18.13;;
69970;SDS011;57301;50.328;8.542;2022-12-11T05:27:59;47.78;;;19.58;;
69970;SDS011;57301;50.328;8.542;2022-12-11T05:30:25;44.78;;;17.90;;
69970;SDS011;57301;50.328;8.542;2022-12-11T05:32:52;44.45;;;18.85;;
69970;SDS011;57301;50.328;8.542;2022-12-11T05:35:18;42.80;;;17.15;;
69970;SDS011;57301;50.328;8.542;2022-12-11T05:37:45;44.97;;;18.70;;
69970;SDS011;57301;50.328;8.542;2022-12-11T05:40:11;40.22;;;16.33;;
69970;SDS011;57301;50.328;8.542;2022-12-11T05:42:38;40.15;;;17.02;;
69970;SDS011;57301;50.328;8.542;2022-12-11T05:45:04;43.90;;;16.45;;
69970;SDS011;57301;50.328;8.542;2022-12-11T05:47:31;39.80;;;17.02;;
69970;SDS011;57301;50.328;8.542;2022-12-11T05:49:58;42.57;;;17.27;;
69970;SDS011;57301;50.328;8.542;2022-12-11T05:52:24;45.88;;;19.60;;
69970;SDS011;57301;50.328;8.542;2022-12-11T05:54:50;39.90;;;17.40;;
69970;SDS011;57301;50.328;8.542;2022-12-11T05:57:17;43.28;;;16.60;;
69970;SDS011;57301;50.328;8.542;2022-12-11T05:59:43;42.95;;;17.10;;
69970;SDS011;57301;50.328;8.542;2022-12-11T06:02:10;42.53;;;16.40;;
69970;SDS011;57301;50.328;8.542;2022-12-11T06:04:36;37.92;;;15.10;;
69970;SDS011;57301;50.328;8.542;2022-12-11T06:07:03;38.20;;;16.42;;
69970;SDS011;57301;50.328;8.542;2022-12-11T06:09:29;44.63;;;17.23;;
69970;SDS011;57301;50.328;8.542;2022-12-11T06:11:56;42.42;;;17.55;;
69970;SDS011;57301;50.328;8.542;2022-12-11T06:14:22;41.23;;;17.37;;
69970;SDS011;57301;50.328;8.542;2022-12-11T06:16:48;41.15;;;18.00;;
69970;SDS011;57301;50.328;8.542;2022-12-11T06:19:15;43.38;;;18.73;;
69970;SDS011;57301;50.328;8.542;2022-12-11T06:21:45;41.78;;;17.08;;
69970;SDS011;57301;50.328;8.542;2022-12-11T06:24:13;43.55;;;18.25;;
69970;SDS011;57301;50.328;8.542;2022-12-11T06:26:40;40.37;;;17.20;;
69970;SDS011;57301;50.328;8.542;2022-12-11T06:29:06;45.58;;;17.77;;
69970;SDS011;57301;50.328;8.542;2022-12-11T06:31:38;42.00;;;17.90;;
69970;SDS011;57301;50.328;8.542;2022-12-11T06:34:04;45.97;;;18.13;;
69970;SDS011;57301;50.328;8.542;2022-12-11T06:36:31;42.25;;;17.25;;
69970;SDS011;57301;50.328;8.542;2022-12-11T06:38:57;48.80;;;18.47;;
69970;SDS011;57301;50.328;8.542;2022-12-11T06:41:24;46.97;;;19.05;;
69970;SDS011;57301;50.328;8.542;2022-12-11T06:43:50;49.10;;;18.90;;
69970;SDS011;57301;50.328;8.542;2022-12-11T06:46:18;46.30;;;18.70;;
69970;SDS011;57301;50.328;8.542;2022-12-11T06:48:45;41.60;;;18.60;;
69970;SDS011;57301;50.328;8.542;2022-12-11T06:51:16;47.40;;;20.20;;
69970;SDS011;57301;50.328;8.542;2022-12-11T06:53:49;48.42;;;18.80;;
69970;SDS011;57301;50.328;8.542;2022-12-11T06:56:19;60.97;;;23.95;;
69970;SDS011;57301;50.328;8.542;2022-12-11T06:58:47;63.97;;;27.20;;
69970;SDS011;57301;50.328;8.542;2022-12-11T07:01:20;40.55;;;18.02;;
69970;SDS011;57301;50.328;8.542;2022-12-11T07:03:51;47.27;;;18.73;;
69970;SDS011;57301;50.328;8.542;2022-12-11T07:06:21;61.78;;;25.45;;
69970;SDS011;57301;50.328;8.542;2022-12-11T07:08:48;45.85;;;18.95;;
69970;SDS011;57301;50.328;8.542;2022-12-11T07:11:16;52.10;;;20.23;;
69970;SDS011;57301;50.328;8.542;2022-12-11T07:13:44;48.47;;;17.85;;
69970;SDS011;57301;50.328;8.542;2022-12-11T07:16:12;44.23;;;18.20;;
69970;SDS011;57301;50.328;8.542;2022-12-11T07:18:42;43.75;;;18.33;;
69970;SDS011;57301;50.328;8.542;2022-12-11T07:21:12;43.40;;;17.35;;
69970;SDS011;57301;50.328;8.542;2022-12-11T07:23:39;42.15;;;17.00;;
69970;SDS011;57301;50.328;8.542;2022-12-11T07:26:07;42.88;;;16.85;;
69970;SDS011;57301;50.328;8.542;2022-12-11T07:28:35;41.03;;;16.57;;
69970;SDS011;57301;50.328;8.542;2022-12-11T07:31:05;39.85;;;16.75;;
69970;SDS011;57301;50.328;8.542;2022-12-11T07:33:33;40.83;;;16.90;;
69970;SDS011;57301;50.328;8.542;2022-12-11T07:36:00;41.55;;;17.50;;
69970;SDS011;57301;50.328;8.542;2022-12-11T07:38:28;40.67;;;17.23;;
69970;SDS011;57301;50.328;8.542;2022-12-11T07:40:55;46.87;;;19.07;;
69970;SDS011;57301;50.328;8.542;2022-12-11T07:43:21;42.80;;;17.98;;
69970;SDS011;57301;50.328;8.542;2022-12-11T07:45:48;43.80;;;18.92;;
69970;SDS011;57301;50.328;8.542;2022-12-11T07:48:14;41.70;;;18.60;;
69970;SDS011;57301;50.328;8.542;2022-12-11T07:50:41;44.00;;;17.75;;
69970;SDS011;57301;50.328;8.542;2022-12-11T07:53:07;46.90;;;19.00;;
69970;SDS011;57301;50.328;8.542;2022-12-11T07:55:34;41.33;;;18.35;;
69970;SDS011;57301;50.328;8.542;2022-12-11T07:58:00;44.50;;;19.60;;
69970;SDS011;57301;50.328;8.542;2022-12-11T08:00:27;43.55;;;19.67;;
69970;SDS011;57301;50.328;8.542;2022-12-11T08:02:53;43.80;;;17.83;;
69970;SDS011;57301;50.328;8.542;2022-12-11T08:05:20;39.87;;;17.23;;
69970;SDS011;57301;50.328;8.542;2022-12-11T08:07:46;40.22;;;17.38;;
69970;SDS011;57301;50.328;8.542;2022-12-11T08:10:13;42.22;;;17.75;;
69970;SDS011;57301;50.328;8.542;2022-12-11T08:12:39;39.28;;;16.38;;
69970;SDS011;57301;50.328;8.542;2022-12-11T08:15:06;42.33;;;17.52;;
69970;SDS011;57301;50.328;8.542;2022-12-11T08:17:33;43.63;;;18.43;;
69970;SDS011;57301;50.328;8.542;2022-12-11T08:20:05;40.28;;;17.50;;
69970;SDS011;57301;50.328;8.542;2022-12-11T08:22:32;46.42;;;20.90;;
69970;SDS011;57301;50.328;8.542;2022-12-11T08:24:59;47.70;;;18.92;;
69970;SDS011;57301;50.328;8.542;2022-12-11T08:27:25;42.03;;;18.52;;
69970;SDS011;57301;50.328;8.542;2022-12-11T08:29:52;44.93;;;18.73;;
69970;SDS011;57301;50.328;8.542;2022-12-11T08:32:18;40.53;;;17.05;;
69970;SDS011;57301;50.328;8.542;2022-12-11T08:34:44;45.13;;;20.15;;
69970;SDS011;57301;50.328;8.542;2022-12-11T08:37:11;43.55;;;18.33;;
69970;SDS011;57301;50.328;8.542;2022-12-11T08:39:38;41.85;;;17.95;;
69970;SDS011;57301;50.328;8.542;2022-12-11T08:42:05;46.07;;;20.17;;
69970;SDS011;57301;50.328;8.542;2022-12-11T08:44:32;39.13;;;17.20;;
69970;SDS011;57301;50.328;8.542;2022-12-11T08:46:58;35.88;;;17.38;;
69970;SDS011;57301;50.328;8.542;2022-12-11T08:49:25;40.88;;;17.15;;
69970;SDS011;57301;50.328;8.542;2022-12-11T08:51:57;39.10;;;16.67;;
69970;SDS011;57301;50.328;8.542;2022-12-11T08:54:24;35.67;;;15.87;;
69970;SDS011;57301;50.328;8.542;2022-12-11T08:56:50;38.53;;;16.45;;
69970;SDS011;57301;50.328;8.542;2022-12-11T08:59:23;39.92;;;16.58;;
69970;SDS011;57301;50.328;8.542;2022-12-11T09:01:50;41.28;;;17.13;;
69970;SDS011;57301;50.328;8.542;2022-12-11T09:04:17;48.38;;;19.83;;
69970;SDS011;57301;50.328;8.542;2022-12-11T09:06:44;42.77;;;18.27;;
69970;SDS011;57301;50.328;8.542;2022-12-11T09:09:10;38.08;;;16.10;;
69970;SDS011;57301;50.328;8.542;2022-12-11T09:11:37;33.95;;;16.38;;
69970;SDS011;57301;50.328;8.542;2022-12-11T09:14:04;42.72;;;16.75;;
69970;SDS011;57301;50.328;8.542;2022-12-11T09:16:34;39.25;;;16.42;;
69970;SDS011;57301;50.328;8.542;2022-12-11T09:19:06;37.40;;;16.77;;
69970;SDS011;57301;50.328;8.542;2022-12-11T09:21:36;35.85;;;15.35;;
69970;SDS011;57301;50.328;8.542;2022-12-11T09:24:02;40.20;;;16.70;;
69970;SDS011;57301;50.328;8.542;2022-12-11T09:26:29;34.63;;;15.45;;
69970;SDS011;57301;50.328;8.542;2022-12-11T09:28:56;36.70;;;16.27;;
69970;SDS011;57301;50.328;8.542;2022-12-11T09:31:24;35.90;;;15.43;;
69970;SDS011;57301;50.328;8.542;2022-12-11T09:33:56;41.55;;;17.25;;
69970;SDS011;57301;50.328;8.542;2022-12-11T09:36:24;35.70;;;16.98;;
69970;SDS011;57301;50.328;8.542;2022-12-11T09:38:51;41.33;;;17.40;;
69970;SDS011;57301;50.328;8.542;2022-12-11T09:43:58;38.83;;;16.20;;
69970;SDS011;57301;50.328;8.542;2022-12-11T09:46:32;36.40;;;15.63;;
69970;SDS011;57301;50.328;8.542;2022-12-11T09:49:01;37.08;;;15.98;;
69970;SDS011;57301;50.328;8.542;2022-12-11T09:51:33;47.63;;;23.20;;
69970;SDS011;57301;50.328;8.542;2022-12-11T09:54:04;38.85;;;17.40;;
69970;SDS011;57301;50.328;8.542;2022-12-11T09:59:27;41.22;;;17.95;;
69970;SDS011;57301;50.328;8.542;2022-12-11T10:02:11;34.30;;;15.30;;
69970;SDS011;57301;50.328;8.542;2022-12-11T10:07:47;31.15;;;13.43;;
69970;SDS011;57301;50.328;8.542;2022-12-11T10:12:59;28.08;;;13.32;;
69970;SDS011;57301;50.328;8.542;2022-12-11T10:17:56;34.75;;;15.07;;
69970;SDS011;57301;50.328;8.542;2022-12-11T10:20:31;29.48;;;13.50;;
69970;SDS011;57301;50.328;8.542;2022-12-11T10:23:02;32.87;;;14.30;;
69970;SDS011;57301;50.328;8.542;2022-12-11T10:25:33;34.40;;;15.35;;
69970;SDS011;57301;50.328;8.542;2022-12-11T10:28:12;34.88;;;15.70;;
69970;SDS011;57301;50.328;8.542;2022-12-11T10:30:40;37.13;;;15.70;;
69970;SDS011;57301;50.328;8.542;2022-12-11T10:33:42;37.53;;;15.40;;
69970;SDS011;57301;50.328;8.542;2022-12-11T10:36:29;34.30;;;14.60;;
69970;SDS011;57301;50.328;8.542;2022-12-11T10:39:13;35.08;;;14.73;;
69970;SDS011;57301;50.328;8.542;2022-12-11T10:41:42;42.15;;;19.30;;
69970;SDS011;57301;50.328;8.542;2022-12-11T10:46:43;35.55;;;16.60;;
69970;SDS011;57301;50.328;8.542;2022-12-11T10:49:20;32.50;;;14.30;;
69970;SDS011;57301;50.328;8.542;2022-12-11T10:51:49;31.02;;;13.20;;
69970;SDS011;57301;50.328;8.542;2022-12-11T10:56:57;26.17;;;11.25;;
69970;SDS011;57301;50.328;8.542;2022-12-11T10:59:32;27.08;;;11.52;;
69970;SDS011;57301;50.328;8.542;2022-12-11T11:01:59;23.73;;;10.60;;
69970;SDS011;57301;50.328;8.542;2022-12-11T11:04:28;24.88;;;10.68;;
69970;SDS011;57301;50.328;8.542;2022-12-11T11:07:10;29.38;;;11.82;;
69970;SDS011;57301;50.328;8.542;2022-12-11T11:09:39;27.40;;;11.48;;
69970;SDS011;57301;50.328;8.542;2022-12-11T11:12:19;28.02;;;10.45;;
69970;SDS011;57301;50.328;8.542;2022-12-11T11:14:57;24.70;;;11.03;;
69970;SDS011;57301;50.328;8.542;2022-12-11T11:17:29;36.00;;;17.30;;
69970;SDS011;57301;50.328;8.542;2022-12-11T11:20:03;33.40;;;15.57;;
69970;SDS011;57301;50.328;8.542;2022-12-11T11:22:41;25.90;;;10.70;;
69970;SDS011;57301;50.328;8.542;2022-12-11T11:25:15;24.67;;;10.70;;
69970;SDS011;57301;50.328;8.542;2022-12-11T11:27:51;28.00;;;12.40;;
69970;SDS011;57301;50.328;8.542;2022-12-11T11:30:22;25.90;;;11.48;;
69970;SDS011;57301;50.328;8.542;2022-12-11T11:32:54;24.63;;;11.20;;
69970;SDS011;57301;50.328;8.542;2022-12-11T11:35:26;25.10;;;11.10;;
69970;SDS011;57301;50.328;8.542;2022-12-11T11:37:57;26.20;;;11.60;;
69970;SDS011;57301;50.328;8.542;2022-12-11T11:40:43;29.90;;;12.07;;
69970;SDS011;57301;50.328;8.542;2022-12-11T11:43:16;27.85;;;13.13;;
69970;SDS011;57301;50.328;8.542;2022-12-11T11:45:55;28.08;;;12.50;;
69970;SDS011;57301;50.328;8.542;2022-12-11T11:48:32;27.50;;;12.02;;
69970;SDS011;57301;50.328;8.542;2022-12-11T11:51:20;27.30;;;11.30;;
69970;SDS011;57301;50.328;8.542;2022-12-11T11:54:06;26.33;;;11.53;;
69970;SDS011;57301;50.328;8.542;2022-12-11T11:56:43;22.77;;;10.90;;
69970;SDS011;57301;50.328;8.542;2022-12-11T12:01:54;25.55;;;11.60;;
69970;SDS011;57301;50.328;8.542;2022-12-11T12:04:22;25.83;;;10.88;;
69970;SDS011;57301;50.328;8.542;2022-12-11T12:20:54;35.37;;;16.47;;
69970;SDS011;57301;50.328;8.542;2022-12-11T12:23:43;30.95;;;14.77;;
69970;SDS011;57301;50.328;8.542;2022-12-11T12:26:26;30.42;;;14.73;;
69970;SDS011;57301;50.328;8.542;2022-12-11T12:29:08;34.25;;;14.57;;
69970;SDS011;57301;50.328;8.542;2022-12-11T12:32:00;28.65;;;12.23;;
69970;SDS011;57301;50.328;8.542;2022-12-11T12:42:49;23.90;;;11.55;;
69970;SDS011;57301;50.328;8.542;2022-12-11T12:47:58;29.20;;;12.97;;
69970;SDS011;57301;50.328;8.542;2022-12-11T12:50:35;27.48;;;11.18;;
69970;SDS011;57301;50.328;8.542;2022-12-11T12:53:05;26.05;;;11.50;;
69970;SDS011;57301;50.328;8.542;2022-12-11T12:55:35;26.80;;;11.43;;
69970;SDS011;57301;50.328;8.542;2022-12-11T12:58:04;27.70;;;11.75;;
69970;SDS011;57301;50.328;8.542;2022-12-11T13:00:36;31.97;;;12.47;;
69970;SDS011;57301;50.328;8.542;2022-12-11T13:03:12;25.50;;;12.63;;
69970;SDS011;57301;50.328;8.542;2022-12-11T13:05:43;31.38;;;12.90;;
69970;SDS011;57301;50.328;8.542;2022-12-11T13:08:23;27.58;;;11.75;;
69970;SDS011;57301;50.328;8.542;2022-12-11T13:11:02;25.98;;;10.65;;
69970;SDS011;57301;50.328;8.542;2022-12-11T13:18:42;24.77;;;11.52;;
69970;SDS011;57301;50.328;8.542;2022-12-11T13:21:24;27.05;;;11.38;;
69970;SDS011;57301;50.328;8.542;2022-12-11T13:23:52;30.70;;;12.85;;
69970;SDS011;57301;50.328;8.542;2022-12-11T13:26:29;25.07;;;11.13;;
69970;SDS011;57301;50.328;8.542;2022-12-11T13:28:57;29.05;;;12.90;;
69970;SDS011;57301;50.328;8.542;2022-12-11T13:31:27;27.90;;;11.23;;
69970;SDS011;57301;50.328;8.542;2022-12-11T13:34:12;25.58;;;11.13;;
69970;SDS011;57301;50.328;8.542;2022-12-11T13:36:46;24.30;;;10.73;;
69970;SDS011;57301;50.328;8.542;2022-12-11T13:39:21;25.20;;;10.83;;
69970;SDS011;57301;50.328;8.542;2022-12-11T13:41:54;25.05;;;11.15;;
69970;SDS011;57301;50.328;8.542;2022-12-11T13:44:28;26.00;;;10.40;;
69970;SDS011;57301;50.328;8.542;2022-12-11T13:47:00;23.95;;;10.35;;
69970;SDS011;57301;50.328;8.542;2022-12-11T13:49:29;23.52;;;9.52;;
69970;SDS011;57301;50.328;8.542;2022-12-11T13:52:03;24.50;;;10.07;;
69970;SDS011;57301;50.328;8.542;2022-12-11T13:54:32;26.73;;;10.63;;
69970;SDS011;57301;50.328;8.542;2022-12-11T13:57:03;25.48;;;10.70;;
69970;SDS011;57301;50.328;8.542;2022-12-11T13:59:45;28.25;;;11.93;;
69970;SDS011;57301;50.328;8.542;2022-12-11T14:02:20;25.33;;;10.48;;
69970;SDS011;57301;50.328;8.542;2022-12-11T14:04:51;22.87;;;10.00;;
69970;SDS011;57301;50.328;8.542;2022-12-11T14:07:41;24.98;;;10.95;;
69970;SDS011;57301;50.328;8.542;2022-12-11T14:10:14;24.23;;;10.88;;
69970;SDS011;57301;50.328;8.542;2022-12-11T14:12:44;26.80;;;10.20;;
69970;SDS011;57301;50.328;8.542;2022-12-11T14:15:34;24.90;;;10.45;;
69970;SDS011;57301;50.328;8.542;2022-12-11T14:18:01;21.40;;;10.43;;
69970;SDS011;57301;50.328;8.542;2022-12-11T14:20:31;25.55;;;10.60;;
69970;SDS011;57301;50.328;8.542;2022-12-11T14:23:05;23.05;;;10.40;;
69970;SDS011;57301;50.328;8.542;2022-12-11T14:26:03;23.45;;;10.55;;
69970;SDS011;57301;50.328;8.542;2022-12-11T14:28:45;22.08;;;9.93;;
69970;SDS011;57301;50.328;8.542;2022-12-11T14:31:13;27.13;;;11.57;;
69970;SDS011;57301;50.328;8.542;2022-12-11T14:33:44;32.90;;;15.25;;
69970;SDS011;57301;50.328;8.542;2022-12-11T14:36:14;26.52;;;11.85;;
69970;SDS011;57301;50.328;8.542;2022-12-11T14:38:43;24.65;;;11.82;;
69970;SDS011;57301;50.328;8.542;2022-12-11T14:41:20;24.17;;;9.80;;
69970;SDS011;57301;50.328;8.542;2022-12-11T14:43:53;22.47;;;9.77;;
69970;SDS011;57301;50.328;8.542;2022-12-11T14:49:20;22.50;;;10.30;;
69970;SDS011;57301;50.328;8.542;2022-12-11T14:51:52;24.42;;;10.23;;
69970;SDS011;57301;50.328;8.542;2022-12-11T14:54:26;20.48;;;9.38;;
69970;SDS011;57301;50.328;8.542;2022-12-11T14:56:57;18.60;;;9.20;;
69970;SDS011;57301;50.328;8.542;2022-12-11T14:59:29;20.15;;;9.02;;
69970;SDS011;57301;50.328;8.542;2022-12-11T15:04:57;23.95;;;10.77;;
69970;SDS011;57301;50.328;8.542;2022-12-11T15:07:27;19.77;;;9.57;;
69970;SDS011;57301;50.328;8.542;2022-12-11T15:09:55;20.70;;;8.87;;
69970;SDS011;57301;50.328;8.542;2022-12-11T15:12:21;19.17;;;8.55;;
69970;SDS011;57301;50.328;8.542;2022-12-11T15:14:50;18.67;;;9.10;;
69970;SDS011;57301;50.328;8.542;2022-12-11T15:17:22;32.38;;;14.60;;
69970;SDS011;57301;50.328;8.542;2022-12-11T15:19:54;26.13;;;12.18;;
69970;SDS011;57301;50.328;8.542;2022-12-11T15:22:29;20.13;;;10.07;;
69970;SDS011;57301;50.328;8.542;2022-12-11T15:24:57;27.05;;;9.90;;
69970;SDS011;57301;50.328;8.542;2022-12-11T15:27:34;21.10;;;10.05;;
69970;SDS011;57301;50.328;8.542;2022-12-11T15:30:53;25.25;;;11.88;;
69970;SDS011;57301;50.328;8.542;2022-12-11T15:35:29;21.23;;;10.00;;
69970;SDS011;57301;50.328;8.542;2022-12-11T15:37:58;19.55;;;9.95;;
69970;SDS011;57301;50.328;8.542;2022-12-11T15:40:24;23.02;;;11.68;;
69970;SDS011;57301;50.328;8.542;2022-12-11T15:42:52;22.08;;;9.77;;
69970;SDS011;57301;50.328;8.542;2022-12-11T15:45:20;27.58;;;13.20;;
69970;SDS011;57301;50.328;8.542;2022-12-11T15:47:50;24.10;;;11.53;;
69970;SDS011;57301;50.328;8.542;2022-12-11T15:52:46;28.98;;;12.95;;
69970;SDS011;57301;50.328;8.542;2022-12-11T15:55:14;31.92;;;13.93;;
69970;SDS011;57301;50.328;8.542;2022-12-11T15:57:52;36.13;;;14.88;;
69970;SDS011;57301;50.328;8.542;2022-12-11T16:00:21;37.57;;;15.57;;
69970;SDS011;57301;50.328;8.542;2022-12-11T16:02:49;47.55;;;18.48;;